sensor_id;sensor_type;location;lat;lon;timestamp;temperature;humidity
61092;DHT22;46975;51.898;11.444;2023-02-01T00:02:00;5.50;99.90
61092;DHT22;46975;51.898;11.444;2023-02-01T00:04:26;5.60;99.90
61092;DHT22;46975;51.898;11.444;2023-02-01T00:06:51;5.60;99.90
61092;DHT22;46975;51.898;11.444;2023-02-01T00:09:17;5.50;99.90
61092;DHT22;46975;51.898;11.444;2023-02-01T00:11:43;5.40;99.90
61092;DHT22;46975;51.898;11.444;2023-02-01T00:14:09;5.40;99.90
61092;DHT22;46975;51.898;11.444;2023-02-01T00:16:35;5.40;99.90
61092;DHT22;46975;51.898;11.444;2023-02-01T00:19:18;5.40;99.90
61092;DHT22;46975;51.898;11.444;2023-02-01T00:21:44;5.30;99.90
61092;DHT22;46975;51.898;11.444;2023-02-01T00:24:11;5.40;99.90
61092;DHT22;46975;51.898;11.444;2023-02-01T00:26:42;5.40;99.90
61092;DHT22;46975;51.898;11.444;2023-02-01T00:29:17;5.40;99.90
61092;DHT22;46975;51.898;11.444;2023-02-01T00:31:43;5.30;99.90
61092;DHT22;46975;51.898;11.444;2023-02-01T00:34:14;5.30;99.90
61092;DHT22;46975;51.898;11.444;2023-02-01T00:36:41;5.30;99.90
61092;DHT22;46975;51.898;11.444;2023-02-01T00:39:07;5.40;99.90
61092;DHT22;46975;51.898;11.444;2023-02-01T00:41:33;5.50;99.90
61092;DHT22;46975;51.898;11.444;2023-02-01T00:43:58;5.40;99.90
61092;DHT22;46975;51.898;11.444;2023-02-01T00:46:24;5.40;99.90
61092;DHT22;46975;51.898;11.444;2023-02-01T00:48:50;5.30;99.90
61092;DHT22;46975;51.898;11.444;2023-02-01T00:51:19;5.40;99.90
61092;DHT22;46975;51.898;11.444;2023-02-01T00:53:45;5.40;99.90
61092;DHT22;46975;51.898;11.444;2023-02-01T00:56:12;5.40;99.90
61092;DHT22;46975;51.898;11.444;2023-02-01T00:58:38;5.40;99.90
61092;DHT22;46975;51.898;11.444;2023-02-01T01:03:37;5.40;99.90
61092;DHT22;46975;51.898;11.444;2023-02-01T01:06:06;5.30;99.90
61092;DHT22;46975;51.898;11.444;2023-02-01T01:08:32;5.30;99.90
61092;DHT22;46975;51.898;11.444;2023-02-01T01:10:58;5.30;99.90
61092;DHT22;46975;51.898;11.444;2023-02-01T01:13:24;5.50;99.90
61092;DHT22;46975;51.898;11.444;2023-02-01T01:15:50;5.50;99.90
61092;DHT22;46975;51.898;11.444;2023-02-01T01:18:15;5.40;99.90
61092;DHT22;46975;51.898;11.444;2023-02-01T01:20:41;5.40;99.90
61092;DHT22;46975;51.898;11.444;2023-02-01T01:23:08;5.40;99.90
61092;DHT22;46975;51.898;11.444;2023-02-01T01:25:38;5.30;99.90
61092;DHT22;46975;51.898;11.444;2023-02-01T01:28:04;5.40;99.90
61092;DHT22;46975;51.898;11.444;2023-02-01T01:30:30;5.40;99.90
61092;DHT22;46975;51.898;11.444;2023-02-01T01:32:56;5.40;99.90
61092;DHT22;46975;51.898;11.444;2023-02-01T01:35:21;5.30;99.90
61092;DHT22;46975;51.898;11.444;2023-02-01T01:37:47;5.40;99.90
61092;DHT22;46975;51.898;11.444;2023-02-01T01:40:13;5.30;99.90
61092;DHT22;46975;51.898;11.444;2023-02-01T01:42:41;5.30;99.90
61092;DHT22;46975;51.898;11.444;2023-02-01T01:47:54;5.40;99.90
61092;DHT22;46975;51.898;11.444;2023-02-01T01:50:25;5.40;99.90
61092;DHT22;46975;51.898;11.444;2023-02-01T01:52:54;5.40;99.90
61092;DHT22;46975;51.898;11.444;2023-02-01T01:55:22;5.40;99.90
61092;DHT22;46975;51.898;11.444;2023-02-01T01:57:57;5.40;99.90
61092;DHT22;46975;51.898;11.444;2023-02-01T02:00:25;5.40;99.90
61092;DHT22;46975;51.898;11.444;2023-02-01T02:02:58;5.40;99.90
61092;DHT22;46975;51.898;11.444;2023-02-01T02:05:25;5.40;99.90
61092;DHT22;46975;51.898;11.444;2023-02-01T02:07:53;5.40;99.90
61092;DHT22;46975;51.898;11.444;2023-02-01T02:10:19;5.40;99.90
61092;DHT22;46975;51.898;11.444;2023-02-01T02:12:47;5.40;99.90
61092;DHT22;46975;51.898;11.444;2023-02-01T02:15:15;5.30;99.90
61092;DHT22;46975;51.898;11.444;2023-02-01T02:17:57;5.40;99.90
61092;DHT22;46975;51.898;11.444;2023-02-01T02:20:35;5.40;99.90
61092;DHT22;46975;51.898;11.444;2023-02-01T02:23:34;5.30;99.90
61092;DHT22;46975;51.898;11.444;2023-02-01T02:26:24;5.40;99.90
61092;DHT22;46975;51.898;11.444;2023-02-01T02:29:32;5.30;99.90
61092;DHT22;46975;51.898;11.444;2023-02-01T02:32:39;5.30;99.90
61092;DHT22;46975;51.898;11.444;2023-02-01T02:35:30;5.20;99.90
61092;DHT22;46975;51.898;11.444;2023-02-01T02:38:02;5.20;99.90
61092;DHT22;46975;51.898;11.444;2023-02-01T02:40:52;5.30;99.90
61092;DHT22;46975;51.898;11.444;2023-02-01T02:46:40;5.30;99.90
61092;DHT22;46975;51.898;11.444;2023-02-01T02:52:08;5.40;99.90
61092;DHT22;46975;51.898;11.444;2023-02-01T02:54:56;5.40;99.90
61092;DHT22;46975;51.898;11.444;2023-02-01T02:57:33;5.40;99.90
61092;DHT22;46975;51.898;11.444;2023-02-01T03:00:21;5.40;99.90
61092;DHT22;46975;51.898;11.444;2023-02-01T03:03:06;5.30;99.90
61092;DHT22;46975;51.898;11.444;2023-02-01T03:05:50;5.40;99.90
61092;DHT22;46975;51.898;11.444;2023-02-01T03:08:27;5.40;99.90
61092;DHT22;46975;51.898;11.444;2023-02-01T03:13:51;5.40;99.90
61092;DHT22;46975;51.898;11.444;2023-02-01T03:21:25;5.40;99.90
61092;DHT22;46975;51.898;11.444;2023-02-01T03:23:53;5.40;99.90
61092;DHT22;46975;51.898;11.444;2023-02-01T03:26:22;5.40;99.90
61092;DHT22;46975;51.898;11.444;2023-02-01T03:28:55;5.30;99.90
61092;DHT22;46975;51.898;11.444;2023-02-01T03:31:23;5.30;99.90
61092;DHT22;46975;51.898;11.444;2023-02-01T03:33:49;5.30;99.90
61092;DHT22;46975;51.898;11.444;2023-02-01T03:36:29;5.40;99.90
61092;DHT22;46975;51.898;11.444;2023-02-01T03:52:01;5.50;99.90
61092;DHT22;46975;51.898;11.444;2023-02-01T03:54:29;5.50;99.90
61092;DHT22;46975;51.898;11.444;2023-02-01T03:56:59;5.50;99.90
61092;DHT22;46975;51.898;11.444;2023-02-01T03:59:25;5.50;99.90
61092;DHT22;46975;51.898;11.444;2023-02-01T04:01:50;5.50;99.90
61092;DHT22;46975;51.898;11.444;2023-02-01T04:04:16;5.50;99.90
61092;DHT22;46975;51.898;11.444;2023-02-01T04:06:54;5.50;99.90
61092;DHT22;46975;51.898;11.444;2023-02-01T04:09:19;5.50;99.90
61092;DHT22;46975;51.898;11.444;2023-02-01T04:11:45;5.50;99.90
61092;DHT22;46975;51.898;11.444;2023-02-01T04:14:11;5.50;99.90
61092;DHT22;46975;51.898;11.444;2023-02-01T04:16:36;5.50;99.90
61092;DHT22;46975;51.898;11.444;2023-02-01T04:19:02;5.60;99.90
61092;DHT22;46975;51.898;11.444;2023-02-01T04:21:28;5.60;99.90
61092;DHT22;46975;51.898;11.444;2023-02-01T04:23:53;5.60;99.90
61092;DHT22;46975;51.898;11.444;2023-02-01T04:26:19;5.60;99.90
61092;DHT22;46975;51.898;11.444;2023-02-01T04:28:46;5.70;99.90
61092;DHT22;46975;51.898;11.444;2023-02-01T04:31:15;5.70;99.90
61092;DHT22;46975;51.898;11.444;2023-02-01T04:33:41;5.70;99.90
61092;DHT22;46975;51.898;11.444;2023-02-01T04:36:06;5.70;99.90
61092;DHT22;46975;51.898;11.444;2023-02-01T04:38:32;5.70;99.90
61092;DHT22;46975;51.898;11.444;2023-02-01T04:40:58;5.60;99.90
61092;DHT22;46975;51.898;11.444;2023-02-01T04:43:24;5.60;99.90
61092;DHT22;46975;51.898;11.444;2023-02-01T04:45:51;5.60;99.90
61092;DHT22;46975;51.898;11.444;2023-02-01T04:48:18;5.50;99.90
61092;DHT22;46975;51.898;11.444;2023-02-01T04:50:45;5.40;99.90
61092;DHT22;46975;51.898;11.444;2023-02-01T04:53:16;5.40;99.90
61092;DHT22;46975;51.898;11.444;2023-02-01T04:55:43;5.30;99.90
61092;DHT22;46975;51.898;11.444;2023-02-01T04:58:09;5.40;99.90
61092;DHT22;46975;51.898;11.444;2023-02-01T05:00:34;5.40;99.90
61092;DHT22;46975;51.898;11.444;2023-02-01T05:03:00;5.30;99.90
61092;DHT22;46975;51.898;11.444;2023-02-01T05:05:26;5.30;99.90
61092;DHT22;46975;51.898;11.444;2023-02-01T05:07:52;5.30;99.90
61092;DHT22;46975;51.898;11.444;2023-02-01T05:10:18;5.40;99.90
61092;DHT22;46975;51.898;11.444;2023-02-01T05:12:44;5.40;99.90
61092;DHT22;46975;51.898;11.444;2023-02-01T05:15:29;5.30;99.90
61092;DHT22;46975;51.898;11.444;2023-02-01T05:17:55;5.20;99.90
61092;DHT22;46975;51.898;11.444;2023-02-01T05:20:21;5.20;99.90
61092;DHT22;46975;51.898;11.444;2023-02-01T05:22:46;5.10;99.90
61092;DHT22;46975;51.898;11.444;2023-02-01T05:25:12;5.10;99.90
61092;DHT22;46975;51.898;11.444;2023-02-01T05:27:37;5.00;99.90
61092;DHT22;46975;51.898;11.444;2023-02-01T05:30:04;5.00;99.90
61092;DHT22;46975;51.898;11.444;2023-02-01T05:32:30;5.00;99.90
61092;DHT22;46975;51.898;11.444;2023-02-01T05:34:56;5.00;99.90
61092;DHT22;46975;51.898;11.444;2023-02-01T05:37:22;4.90;99.90
61092;DHT22;46975;51.898;11.444;2023-02-01T05:39:48;4.90;99.90
61092;DHT22;46975;51.898;11.444;2023-02-01T05:42:14;4.90;99.90
61092;DHT22;46975;51.898;11.444;2023-02-01T05:44:40;4.80;99.90
61092;DHT22;46975;51.898;11.444;2023-02-01T05:47:06;4.80;99.90
61092;DHT22;46975;51.898;11.444;2023-02-01T05:49:31;4.70;99.90
61092;DHT22;46975;51.898;11.444;2023-02-01T05:51:57;4.70;99.90
61092;DHT22;46975;51.898;11.444;2023-02-01T05:54:24;4.70;99.90
61092;DHT22;46975;51.898;11.444;2023-02-01T05:56:49;4.70;99.90
61092;DHT22;46975;51.898;11.444;2023-02-01T05:59:15;4.70;99.90
61092;DHT22;46975;51.898;11.444;2023-02-01T06:01:41;4.60;99.90
61092;DHT22;46975;51.898;11.444;2023-02-01T06:04:06;4.70;99.90
61092;DHT22;46975;51.898;11.444;2023-02-01T06:06:32;4.60;99.90
61092;DHT22;46975;51.898;11.444;2023-02-01T06:08:57;4.60;99.90
61092;DHT22;46975;51.898;11.444;2023-02-01T06:11:24;4.60;99.90
61092;DHT22;46975;51.898;11.444;2023-02-01T06:13:50;4.70;99.90
61092;DHT22;46975;51.898;11.444;2023-02-01T06:16:15;4.90;99.90
61092;DHT22;46975;51.898;11.444;2023-02-01T06:18:42;5.00;99.90
61092;DHT22;46975;51.898;11.444;2023-02-01T06:21:08;5.20;99.90
61092;DHT22;46975;51.898;11.444;2023-02-01T06:23:34;5.30;99.90
61092;DHT22;46975;51.898;11.444;2023-02-01T06:26:04;5.30;99.90
61092;DHT22;46975;51.898;11.444;2023-02-01T06:28:31;5.30;99.90
61092;DHT22;46975;51.898;11.444;2023-02-01T06:30:57;5.20;99.90
61092;DHT22;46975;51.898;11.444;2023-02-01T06:33:26;5.10;99.90
61092;DHT22;46975;51.898;11.444;2023-02-01T06:35:59;5.20;99.90
61092;DHT22;46975;51.898;11.444;2023-02-01T06:38:25;5.20;99.90
61092;DHT22;46975;51.898;11.444;2023-02-01T06:40:55;5.20;99.90
61092;DHT22;46975;51.898;11.444;2023-02-01T06:43:25;5.20;99.90
61092;DHT22;46975;51.898;11.444;2023-02-01T06:45:52;5.30;99.90
61092;DHT22;46975;51.898;11.444;2023-02-01T06:48:18;5.30;99.90
61092;DHT22;46975;51.898;11.444;2023-02-01T06:50:44;5.30;99.90
61092;DHT22;46975;51.898;11.444;2023-02-01T06:53:11;5.20;99.90
61092;DHT22;46975;51.898;11.444;2023-02-01T06:55:36;5.20;99.90
61092;DHT22;46975;51.898;11.444;2023-02-01T06:58:02;5.10;99.90
61092;DHT22;46975;51.898;11.444;2023-02-01T07:00:29;5.10;99.90
61092;DHT22;46975;51.898;11.444;2023-02-01T07:02:54;5.10;99.90
61092;DHT22;46975;51.898;11.444;2023-02-01T07:05:21;5.20;99.90
61092;DHT22;46975;51.898;11.444;2023-02-01T07:07:46;5.30;99.90
61092;DHT22;46975;51.898;11.444;2023-02-01T07:10:12;5.40;99.90
61092;DHT22;46975;51.898;11.444;2023-02-01T07:12:38;5.30;99.90
61092;DHT22;46975;51.898;11.444;2023-02-01T07:15:05;5.30;99.90
61092;DHT22;46975;51.898;11.444;2023-02-01T07:17:31;5.40;99.90
61092;DHT22;46975;51.898;11.444;2023-02-01T07:19:57;5.50;99.90
61092;DHT22;46975;51.898;11.444;2023-02-01T07:22:25;5.50;99.90
61092;DHT22;46975;51.898;11.444;2023-02-01T07:24:51;5.40;99.90
61092;DHT22;46975;51.898;11.444;2023-02-01T07:27:16;5.40;99.90
61092;DHT22;46975;51.898;11.444;2023-02-01T07:29:42;5.50;99.90
61092;DHT22;46975;51.898;11.444;2023-02-01T07:32:07;5.50;99.90
61092;DHT22;46975;51.898;11.444;2023-02-01T07:34:33;5.50;99.90
61092;DHT22;46975;51.898;11.444;2023-02-01T07:36:59;5.50;99.90
61092;DHT22;46975;51.898;11.444;2023-02-01T07:39:25;5.60;99.90
61092;DHT22;46975;51.898;11.444;2023-02-01T07:41:53;5.70;99.90
61092;DHT22;46975;51.898;11.444;2023-02-01T07:44:19;5.80;99.90
61092;DHT22;46975;51.898;11.444;2023-02-01T07:46:49;5.90;99.90
61092;DHT22;46975;51.898;11.444;2023-02-01T07:49:14;5.80;99.90
61092;DHT22;46975;51.898;11.444;2023-02-01T07:51:40;5.70;99.90
61092;DHT22;46975;51.898;11.444;2023-02-01T07:54:06;5.60;99.90
61092;DHT22;46975;51.898;11.444;2023-02-01T07:56:31;5.40;99.90
61092;DHT22;46975;51.898;11.444;2023-02-01T07:58:57;5.30;99.90
61092;DHT22;46975;51.898;11.444;2023-02-01T08:01:26;5.20;99.90
61092;DHT22;46975;51.898;11.444;2023-02-01T08:04:03;5.20;99.90
61092;DHT22;46975;51.898;11.444;2023-02-01T08:06:31;5.20;99.90
61092;DHT22;46975;51.898;11.444;2023-02-01T08:08:57;5.20;99.90
61092;DHT22;46975;51.898;11.444;2023-02-01T08:11:24;5.10;99.90
61092;DHT22;46975;51.898;11.444;2023-02-01T08:13:50;5.10;99.90
61092;DHT22;46975;51.898;11.444;2023-02-01T08:16:18;5.10;99.90
61092;DHT22;46975;51.898;11.444;2023-02-01T08:18:44;5.10;99.90
61092;DHT22;46975;51.898;11.444;2023-02-01T08:21:12;5.20;99.90
61092;DHT22;46975;51.898;11.444;2023-02-01T08:23:38;5.20;99.90
61092;DHT22;46975;51.898;11.444;2023-02-01T08:26:10;5.20;99.90
61092;DHT22;46975;51.898;11.444;2023-02-01T08:28:37;5.20;99.90
61092;DHT22;46975;51.898;11.444;2023-02-01T08:31:08;5.30;99.90
61092;DHT22;46975;51.898;11.444;2023-02-01T08:33:35;5.20;99.90
61092;DHT22;46975;51.898;11.444;2023-02-01T08:36:03;5.30;99.90
61092;DHT22;46975;51.898;11.444;2023-02-01T08:38:30;5.30;99.90
61092;DHT22;46975;51.898;11.444;2023-02-01T08:40:55;5.30;99.90
61092;DHT22;46975;51.898;11.444;2023-02-01T08:43:21;5.30;99.90
61092;DHT22;46975;51.898;11.444;2023-02-01T08:45:47;5.30;99.90
61092;DHT22;46975;51.898;11.444;2023-02-01T08:48:13;5.30;99.90
61092;DHT22;46975;51.898;11.444;2023-02-01T08:50:38;5.30;99.90
61092;DHT22;46975;51.898;11.444;2023-02-01T08:53:04;5.40;99.90
61092;DHT22;46975;51.898;11.444;2023-02-01T08:55:29;5.40;99.90
61092;DHT22;46975;51.898;11.444;2023-02-01T08:57:55;5.40;99.90
61092;DHT22;46975;51.898;11.444;2023-02-01T09:00:21;5.50;99.90
61092;DHT22;46975;51.898;11.444;2023-02-01T09:02:47;5.50;99.90
61092;DHT22;46975;51.898;11.444;2023-02-01T09:05:13;5.40;99.90
61092;DHT22;46975;51.898;11.444;2023-02-01T09:07:41;5.40;99.90
61092;DHT22;46975;51.898;11.444;2023-02-01T09:10:08;5.40;99.90
61092;DHT22;46975;51.898;11.444;2023-02-01T09:12:35;5.40;99.90
61092;DHT22;46975;51.898;11.444;2023-02-01T09:15:01;5.40;99.90
61092;DHT22;46975;51.898;11.444;2023-02-01T09:17:27;5.50;99.90
61092;DHT22;46975;51.898;11.444;2023-02-01T09:19:53;5.60;99.90
61092;DHT22;46975;51.898;11.444;2023-02-01T09:22:19;5.60;99.90
61092;DHT22;46975;51.898;11.444;2023-02-01T09:24:44;5.70;99.90
61092;DHT22;46975;51.898;11.444;2023-02-01T09:27:10;5.60;99.90
61092;DHT22;46975;51.898;11.444;2023-02-01T09:29:36;5.60;99.90
61092;DHT22;46975;51.898;11.444;2023-02-01T09:32:01;5.70;99.90
61092;DHT22;46975;51.898;11.444;2023-02-01T09:34:27;5.60;99.90
61092;DHT22;46975;51.898;11.444;2023-02-01T09:36:53;5.50;99.90
61092;DHT22;46975;51.898;11.444;2023-02-01T09:39:18;5.50;99.90
61092;DHT22;46975;51.898;11.444;2023-02-01T09:42:02;5.50;99.90
61092;DHT22;46975;51.898;11.444;2023-02-01T09:46:57;5.60;99.90
61092;DHT22;46975;51.898;11.444;2023-02-01T09:49:36;5.70;99.90
61092;DHT22;46975;51.898;11.444;2023-02-01T09:52:05;5.90;99.90
61092;DHT22;46975;51.898;11.444;2023-02-01T09:54:42;6.00;99.90
61092;DHT22;46975;51.898;11.444;2023-02-01T09:57:16;6.20;99.90
61092;DHT22;46975;51.898;11.444;2023-02-01T10:00:06;6.30;99.90
61092;DHT22;46975;51.898;11.444;2023-02-01T10:02:38;6.40;99.90
61092;DHT22;46975;51.898;11.444;2023-02-01T10:05:05;6.60;99.90
61092;DHT22;46975;51.898;11.444;2023-02-01T10:07:37;6.60;99.90
61092;DHT22;46975;51.898;11.444;2023-02-01T10:15:49;6.60;99.90
61092;DHT22;46975;51.898;11.444;2023-02-01T10:18:31;6.50;99.90
61092;DHT22;46975;51.898;11.444;2023-02-01T10:26:27;6.70;99.90
61092;DHT22;46975;51.898;11.444;2023-02-01T10:29:01;6.70;99.90
61092;DHT22;46975;51.898;11.444;2023-02-01T10:31:36;6.80;99.90
61092;DHT22;46975;51.898;11.444;2023-02-01T10:34:22;7.00;99.90
61092;DHT22;46975;51.898;11.444;2023-02-01T10:39:20;7.30;99.90
61092;DHT22;46975;51.898;11.444;2023-02-01T10:41:46;7.30;99.90
61092;DHT22;46975;51.898;11.444;2023-02-01T10:44:15;7.20;99.90
61092;DHT22;46975;51.898;11.444;2023-02-01T10:46:41;7.00;99.90
61092;DHT22;46975;51.898;11.444;2023-02-01T10:49:20;6.90;99.90
61092;DHT22;46975;51.898;11.444;2023-02-01T10:51:58;6.80;99.90
61092;DHT22;46975;51.898;11.444;2023-02-01T10:54:37;6.80;99.90
61092;DHT22;46975;51.898;11.444;2023-02-01T10:57:11;6.80;99.90
61092;DHT22;46975;51.898;11.444;2023-02-01T10:59:44;6.80;99.90
61092;DHT22;46975;51.898;11.444;2023-02-01T11:02:24;6.80;99.90
61092;DHT22;46975;51.898;11.444;2023-02-01T11:05:05;6.80;99.90
61092;DHT22;46975;51.898;11.444;2023-02-01T11:07:35;6.90;99.90
61092;DHT22;46975;51.898;11.444;2023-02-01T11:10:01;7.00;99.90
61092;DHT22;46975;51.898;11.444;2023-02-01T11:12:37;7.00;99.90
61092;DHT22;46975;51.898;11.444;2023-02-01T11:15:12;7.00;99.90
61092;DHT22;46975;51.898;11.444;2023-02-01T11:17:50;7.00;99.90
61092;DHT22;46975;51.898;11.444;2023-02-01T11:20:40;7.10;99.90
61092;DHT22;46975;51.898;11.444;2023-02-01T11:23:15;7.10;99.90
61092;DHT22;46975;51.898;11.444;2023-02-01T11:25:57;7.20;99.90
61092;DHT22;46975;51.898;11.444;2023-02-01T11:28:32;7.20;99.90
61092;DHT22;46975;51.898;11.444;2023-02-01T11:31:03;7.20;99.90
61092;DHT22;46975;51.898;11.444;2023-02-01T11:33:32;7.20;99.90
61092;DHT22;46975;51.898;11.444;2023-02-01T11:36:06;7.30;99.90
61092;DHT22;46975;51.898;11.444;2023-02-01T11:38:33;7.30;99.90
61092;DHT22;46975;51.898;11.444;2023-02-01T11:41:22;7.30;99.90
61092;DHT22;46975;51.898;11.444;2023-02-01T11:46:20;7.30;99.90
61092;DHT22;46975;51.898;11.444;2023-02-01T11:48:51;7.30;99.90
61092;DHT22;46975;51.898;11.444;2023-02-01T12:07:51;7.30;99.90
61092;DHT22;46975;51.898;11.444;2023-02-01T12:25:05;7.30;99.90
61092;DHT22;46975;51.898;11.444;2023-02-01T12:30:52;7.30;99.90
61092;DHT22;46975;51.898;11.444;2023-02-01T12:36:36;7.30;99.90
61092;DHT22;46975;51.898;11.444;2023-02-01T12:41:55;7.30;99.90
61092;DHT22;46975;51.898;11.444;2023-02-01T12:44:42;7.30;99.90
61092;DHT22;46975;51.898;11.444;2023-02-01T12:47:29;7.40;99.90
61092;DHT22;46975;51.898;11.444;2023-02-01T12:50:14;7.30;99.90
61092;DHT22;46975;51.898;11.444;2023-02-01T12:52:51;7.30;99.90
61092;DHT22;46975;51.898;11.444;2023-02-01T12:55:34;7.30;99.90
61092;DHT22;46975;51.898;11.444;2023-02-01T12:58:12;7.40;99.90
61092;DHT22;46975;51.898;11.444;2023-02-01T13:00:43;7.30;99.90
61092;DHT22;46975;51.898;11.444;2023-02-01T13:03:36;7.40;99.90
61092;DHT22;46975;51.898;11.444;2023-02-01T13:06:30;7.70;99.90
61092;DHT22;46975;51.898;11.444;2023-02-01T13:09:03;7.70;99.90
61092;DHT22;46975;51.898;11.444;2023-02-01T13:11:41;7.70;99.90
61092;DHT22;46975;51.898;11.444;2023-02-01T13:16:51;7.60;99.90
61092;DHT22;46975;51.898;11.444;2023-02-01T13:22:22;7.60;99.90
61092;DHT22;46975;51.898;11.444;2023-02-01T13:24:56;7.60;99.90
61092;DHT22;46975;51.898;11.444;2023-02-01T13:27:22;7.50;99.90
61092;DHT22;46975;51.898;11.444;2023-02-01T13:30:00;7.50;99.90
61092;DHT22;46975;51.898;11.444;2023-02-01T13:38:30;7.50;99.90
61092;DHT22;46975;51.898;11.444;2023-02-01T13:43:53;7.50;99.90
61092;DHT22;46975;51.898;11.444;2023-02-01T13:46:20;7.40;99.90
61092;DHT22;46975;51.898;11.444;2023-02-01T13:48:55;7.30;99.90
61092;DHT22;46975;51.898;11.444;2023-02-01T13:54:04;7.10;99.90
61092;DHT22;46975;51.898;11.444;2023-02-01T13:56:42;7.10;99.90
61092;DHT22;46975;51.898;11.444;2023-02-01T14:05:12;7.20;99.90
61092;DHT22;46975;51.898;11.444;2023-02-01T14:10:55;7.20;99.90
61092;DHT22;46975;51.898;11.444;2023-02-01T14:21:34;7.00;99.90
61092;DHT22;46975;51.898;11.444;2023-02-01T14:26:47;7.00;99.90
61092;DHT22;46975;51.898;11.444;2023-02-01T14:31:52;6.70;99.90
61092;DHT22;46975;51.898;11.444;2023-02-01T14:34:29;6.70;99.90
61092;DHT22;46975;51.898;11.444;2023-02-01T14:37:00;6.60;99.90
61092;DHT22;46975;51.898;11.444;2023-02-01T14:40:23;6.40;99.90
61092;DHT22;46975;51.898;11.444;2023-02-01T14:42:46;6.20;99.90
61092;DHT22;46975;51.898;11.444;2023-02-01T14:58:33;4.90;99.90
61092;DHT22;46975;51.898;11.444;2023-02-01T15:09:16;3.80;99.90
61092;DHT22;46975;51.898;11.444;2023-02-01T15:14:26;4.00;99.90
61092;DHT22;46975;51.898;11.444;2023-02-01T15:16:53;4.00;99.90
61092;DHT22;46975;51.898;11.444;2023-02-01T15:19:24;3.90;99.90
61092;DHT22;46975;51.898;11.444;2023-02-01T15:21:55;3.80;99.90
61092;DHT22;46975;51.898;11.444;2023-02-01T15:24:22;3.80;99.90
61092;DHT22;46975;51.898;11.444;2023-02-01T15:26:48;3.80;99.90
61092;DHT22;46975;51.898;11.444;2023-02-01T15:29:15;3.80;99.90
61092;DHT22;46975;51.898;11.444;2023-02-01T15:31:43;3.80;99.90
61092;DHT22;46975;51.898;11.444;2023-02-01T15:34:10;3.80;99.90
61092;DHT22;46975;51.898;11.444;2023-02-01T15:36:36;3.80;99.90
61092;DHT22;46975;51.898;11.444;2023-02-01T15:39:16;3.80;99.90
61092;DHT22;46975;51.898;11.444;2023-02-01T15:41:47;3.60;99.90
61092;DHT22;46975;51.898;11.444;2023-02-01T15:44:17;3.50;99.90
61092;DHT22;46975;51.898;11.444;2023-02-01T15:46:46;3.50;99.90
61092;DHT22;46975;51.898;11.444;2023-02-01T15:49:37;3.50;99.90
61092;DHT22;46975;51.898;11.444;2023-02-01T15:52:16;3.50;99.90
61092;DHT22;46975;51.898;11.444;2023-02-01T15:54:48;3.50;99.90
61092;DHT22;46975;51.898;11.444;2023-02-01T15:57:22;3.50;99.90
61092;DHT22;46975;51.898;11.444;2023-02-01T15:59:52;3.50;99.90
61092;DHT22;46975;51.898;11.444;2023-02-01T16:02:37;3.50;99.90
61092;DHT22;46975;51.898;11.444;2023-02-01T16:05:35;3.40;99.90
61092;DHT22;46975;51.898;11.444;2023-02-01T16:08:13;3.40;99.90
61092;DHT22;46975;51.898;11.444;2023-02-01T16:10:44;3.30;99.90
61092;DHT22;46975;51.898;11.444;2023-02-01T16:13:11;3.30;99.90
61092;DHT22;46975;51.898;11.444;2023-02-01T16:15:37;3.40;99.90
61092;DHT22;46975;51.898;11.444;2023-02-01T16:18:03;3.40;99.90
61092;DHT22;46975;51.898;11.444;2023-02-01T16:20:28;3.40;99.90
61092;DHT22;46975;51.898;11.444;2023-02-01T16:22:55;3.50;99.90
61092;DHT22;46975;51.898;11.444;2023-02-01T16:25:20;3.50;99.90
61092;DHT22;46975;51.898;11.444;2023-02-01T16:27:46;3.50;99.90
61092;DHT22;46975;51.898;11.444;2023-02-01T16:30:12;3.50;99.90
61092;DHT22;46975;51.898;11.444;2023-02-01T16:32:38;3.50;99.90
61092;DHT22;46975;51.898;11.444;2023-02-01T16:35:21;3.40;99.90
61092;DHT22;46975;51.898;11.444;2023-02-01T16:37:47;3.30;99.90
61092;DHT22;46975;51.898;11.444;2023-02-01T16:40:14;3.30;99.90
61092;DHT22;46975;51.898;11.444;2023-02-01T16:42:40;3.30;99.90
61092;DHT22;46975;51.898;11.444;2023-02-01T16:45:07;3.30;99.90
61092;DHT22;46975;51.898;11.444;2023-02-01T16:47:34;3.30;99.90
61092;DHT22;46975;51.898;11.444;2023-02-01T16:50:01;3.30;99.90
61092;DHT22;46975;51.898;11.444;2023-02-01T16:52:27;3.50;99.90
61092;DHT22;46975;51.898;11.444;2023-02-01T16:54:52;3.50;99.90
61092;DHT22;46975;51.898;11.444;2023-02-01T16:57:19;3.50;99.90
61092;DHT22;46975;51.898;11.444;2023-02-01T16:59:47;3.50;99.90
61092;DHT22;46975;51.898;11.444;2023-02-01T17:02:15;3.50;99.90
61092;DHT22;46975;51.898;11.444;2023-02-01T17:04:41;3.50;99.90
61092;DHT22;46975;51.898;11.444;2023-02-01T17:07:14;3.60;99.90
61092;DHT22;46975;51.898;11.444;2023-02-01T17:09:40;3.70;99.90
61092;DHT22;46975;51.898;11.444;2023-02-01T17:12:08;3.70;99.90
61092;DHT22;46975;51.898;11.444;2023-02-01T17:14:40;3.70;99.90
61092;DHT22;46975;51.898;11.444;2023-02-01T17:17:08;3.80;99.90
61092;DHT22;46975;51.898;11.444;2023-02-01T17:19:34;3.80;99.90
61092;DHT22;46975;51.898;11.444;2023-02-01T17:22:00;3.80;99.90
61092;DHT22;46975;51.898;11.444;2023-02-01T17:24:28;3.90;99.90
61092;DHT22;46975;51.898;11.444;2023-02-01T17:26:55;4.00;99.90
61092;DHT22;46975;51.898;11.444;2023-02-01T17:29:20;4.00;99.90
61092;DHT22;46975;51.898;11.444;2023-02-01T17:31:49;4.10;99.90
61092;DHT22;46975;51.898;11.444;2023-02-01T17:34:16;4.10;99.90
61092;DHT22;46975;51.898;11.444;2023-02-01T17:36:44;4.00;99.90
61092;DHT22;46975;51.898;11.444;2023-02-01T17:39:10;4.10;99.90
61092;DHT22;46975;51.898;11.444;2023-02-01T17:41:56;4.10;99.90
61092;DHT22;46975;51.898;11.444;2023-02-01T17:44:21;4.00;99.90
61092;DHT22;46975;51.898;11.444;2023-02-01T17:46:47;4.10;99.90
61092;DHT22;46975;51.898;11.444;2023-02-01T17:49:13;4.10;99.90
61092;DHT22;46975;51.898;11.444;2023-02-01T17:51:38;4.00;99.90
61092;DHT22;46975;51.898;11.444;2023-02-01T17:54:11;4.10;99.90
61092;DHT22;46975;51.898;11.444;2023-02-01T17:56:37;4.20;99.90
61092;DHT22;46975;51.898;11.444;2023-02-01T17:59:03;4.20;99.90
61092;DHT22;46975;51.898;11.444;2023-02-01T18:01:28;4.30;99.90
61092;DHT22;46975;51.898;11.444;2023-02-01T18:03:54;4.20;99.90
61092;DHT22;46975;51.898;11.444;2023-02-01T18:06:23;4.20;99.90
61092;DHT22;46975;51.898;11.444;2023-02-01T18:08:49;4.30;99.90
61092;DHT22;46975;51.898;11.444;2023-02-01T18:11:17;4.30;99.90
61092;DHT22;46975;51.898;11.444;2023-02-01T18:13:44;4.30;99.90
61092;DHT22;46975;51.898;11.444;2023-02-01T18:16:30;4.30;99.90
61092;DHT22;46975;51.898;11.444;2023-02-01T18:18:55;4.40;99.90
61092;DHT22;46975;51.898;11.444;2023-02-01T18:21:31;4.40;99.90
61092;DHT22;46975;51.898;11.444;2023-02-01T18:23:59;4.40;99.90